createdAt,value
2022-10-22T00:03:37.815Z,13.68
2022-10-22T00:09:39.960Z,13.66
2022-10-22T00:15:41.865Z,13.62
2022-10-22T00:21:43.870Z,13.68
2022-10-22T00:27:45.751Z,13.87
2022-10-22T00:33:48.272Z,13.88
2022-10-22T00:39:50.150Z,13.96
2022-10-22T00:45:52.045Z,14.07
2022-10-22T00:58:08.167Z,14.20
2022-10-22T01:04:10.677Z,13.92
2022-10-22T01:11:16.560Z,13.82
2022-10-22T01:17:34.931Z,13.88
2022-10-22T01:24:13.102Z,13.83
2022-10-22T01:30:15.883Z,13.76
2022-10-22T01:36:18.853Z,13.85
2022-10-22T01:42:20.762Z,13.65
2022-10-22T01:49:00.478Z,13.70
2022-10-22T01:55:11.128Z,14.01
2022-10-22T02:01:26.730Z,13.93
2022-10-22T02:07:35.923Z,14.00
2022-10-22T02:13:47.568Z,14.06
2022-10-22T02:20:01.003Z,14.11
2022-10-22T02:26:31.167Z,14.16
2022-10-22T02:33:11.589Z,14.14
2022-10-22T02:45:22.815Z,14.27
2022-10-22T02:51:24.735Z,14.26
2022-10-22T02:57:26.765Z,14.35
2022-10-22T03:03:28.829Z,14.22
2022-10-22T03:09:30.921Z,14.15
2022-10-22T03:15:32.818Z,14.09
2022-10-22T03:21:52.950Z,13.91
2022-10-22T03:28:01.318Z,13.80
2022-10-22T03:34:03.306Z,13.88
2022-10-22T03:40:07.369Z,13.98
2022-10-22T03:46:09.277Z,13.99
2022-10-22T03:52:14.349Z,13.86
2022-10-22T03:58:16.273Z,13.86
2022-10-22T04:04:18.154Z,13.77
2022-10-22T04:10:20.174Z,13.79
2022-10-22T04:16:25.166Z,14.00
2022-10-22T04:22:29.587Z,13.83
2022-10-22T04:28:40.010Z,13.89
2022-10-22T04:34:44.271Z,13.96
2022-10-22T04:40:46.172Z,13.99
2022-10-22T04:46:48.153Z,14.01
2022-10-22T04:52:50.465Z,13.87
2022-10-22T04:59:02.630Z,13.76
2022-10-22T05:05:05.662Z,13.62
2022-10-22T05:11:19.408Z,13.55
2022-10-22T05:17:21.353Z,13.57
2022-10-22T05:23:23.496Z,13.50
2022-10-22T05:29:26.812Z,13.49
2022-10-22T05:35:28.769Z,13.41
2022-10-22T05:41:31.028Z,13.05
2022-10-22T05:47:32.934Z,13.41
2022-10-22T05:53:37.007Z,13.08
2022-10-22T05:59:38.944Z,12.92
2022-10-22T06:05:40.896Z,13.00
2022-10-22T06:11:42.942Z,12.95
2022-10-22T06:17:45.986Z,13.05
2022-10-22T06:23:47.894Z,13.28
2022-10-22T06:29:49.802Z,13.14
2022-10-22T06:35:51.783Z,13.20
2022-10-22T06:41:53.645Z,13.26
2022-10-22T06:47:55.815Z,13.51
2022-10-22T06:53:59.275Z,13.65
2022-10-22T07:00:01.287Z,13.73
2022-10-22T07:06:06.847Z,13.85
2022-10-22T07:12:08.745Z,14.01
2022-10-22T07:18:10.707Z,14.16
2022-10-22T07:24:12.750Z,14.26
2022-10-22T07:30:14.842Z,14.46
2022-10-22T07:36:17.978Z,14.59
2022-10-22T07:42:20.186Z,14.73
2022-10-22T07:48:23.088Z,15.09
2022-10-22T07:54:44.228Z,15.26
2022-10-22T08:00:49.916Z,15.51
2022-10-22T08:06:51.964Z,15.82
2022-10-22T08:12:53.870Z,15.90
2022-10-22T08:18:55.816Z,15.86
2022-10-22T08:24:57.736Z,15.76
2022-10-22T08:30:59.711Z,16.17
2022-10-22T08:37:01.682Z,16.58
2022-10-22T08:43:18.606Z,16.95
2022-10-22T08:49:28.821Z,17.09
2022-10-22T08:55:36.492Z,17.32
2022-10-22T09:01:45.620Z,17.29
2022-10-22T09:07:50.444Z,17.64
2022-10-22T09:20:23.792Z,17.97
2022-10-22T09:26:27.263Z,17.73
2022-10-22T09:32:29.459Z,17.87
2022-10-22T09:38:39.098Z,18.14
2022-10-22T09:44:43.747Z,18.42
2022-10-22T09:50:55.487Z,18.70
2022-10-22T09:57:13.779Z,18.80
2022-10-22T10:03:32.031Z,18.33
2022-10-22T10:09:36.345Z,18.57
2022-10-22T10:16:07.983Z,18.27
2022-10-22T10:22:44.646Z,17.99
2022-10-22T10:29:05.030Z,17.90
2022-10-22T10:35:36.319Z,17.95
2022-10-22T10:42:09.940Z,18.28
2022-10-22T10:48:45.166Z,18.30
2022-10-22T10:54:54.472Z,18.37
2022-10-22T11:01:12.457Z,18.25
2022-10-22T11:07:35.094Z,18.18
2022-10-22T11:14:16.830Z,18.04
2022-10-22T11:20:22.478Z,17.85
2022-10-22T11:26:45.821Z,17.80
2022-10-22T11:33:01.853Z,17.94
2022-10-22T11:39:38.218Z,18.52
2022-10-22T11:45:57.639Z,19.58
2022-10-22T11:52:28.244Z,19.92
2022-10-22T11:58:50.694Z,19.95
2022-10-22T12:05:16.271Z,19.83
2022-10-22T12:11:47.979Z,19.91
2022-10-22T12:17:50.494Z,19.75
2022-10-22T12:23:52.628Z,19.84
2022-10-22T12:29:59.981Z,20.19
2022-10-22T12:36:04.112Z,20.42
2022-10-22T12:42:29.667Z,20.23
2022-10-22T12:56:33.891Z,19.38
2022-10-22T13:02:35.841Z,19.15
2022-10-22T13:08:40.268Z,19.10
2022-10-22T13:14:45.040Z,19.18
2022-10-22T13:21:41.818Z,19.35
2022-10-22T13:27:49.437Z,20.21
2022-10-22T13:34:00.042Z,21.58
2022-10-22T13:40:15.826Z,21.05
2022-10-22T13:46:19.185Z,20.48
2022-10-22T13:52:55.310Z,20.20
2022-10-22T13:58:57.268Z,20.08
2022-10-22T14:05:04.557Z,19.74
2022-10-22T14:11:06.651Z,19.37
2022-10-22T14:17:19.126Z,18.80
2022-10-22T14:23:24.772Z,18.63
2022-10-22T14:29:29.770Z,18.23
2022-10-22T14:42:16.607Z,18.34
2022-10-22T14:54:21.421Z,18.36
2022-10-22T15:00:23.793Z,18.63
2022-10-22T15:06:25.917Z,18.78
2022-10-22T15:12:27.897Z,18.75
2022-10-22T15:24:46.252Z,18.36
2022-10-22T15:30:59.949Z,18.14
2022-10-22T15:37:05.246Z,17.96
2022-10-22T15:43:07.205Z,18.31
2022-10-22T15:49:09.130Z,18.01
2022-10-22T16:01:14.710Z,17.58
2022-10-22T16:07:18.044Z,17.05
2022-10-22T16:13:24.767Z,16.79
2022-10-22T16:19:29.787Z,17.12
2022-10-22T16:25:37.380Z,16.73
2022-10-22T16:31:48.961Z,16.74
2022-10-22T16:37:56.874Z,16.78
2022-10-22T16:44:00.942Z,16.93
2022-10-22T16:50:15.029Z,16.81
2022-10-22T17:02:35.227Z,16.92
2022-10-22T17:08:39.164Z,16.71
2022-10-22T17:14:41.127Z,16.39
2022-10-22T17:20:43.760Z,16.34
2022-10-22T17:26:46.743Z,16.04
2022-10-22T17:32:48.854Z,15.95
2022-10-22T17:38:57.943Z,16.02
2022-10-22T17:44:59.904Z,15.84
2022-10-22T17:51:09.149Z,15.76
2022-10-22T17:57:15.877Z,15.46
2022-10-22T18:03:18.014Z,15.05
2022-10-22T18:09:20.137Z,14.80
2022-10-22T18:15:31.295Z,14.64
2022-10-22T18:21:33.198Z,14.60
2022-10-22T18:27:35.157Z,14.63
2022-10-22T18:33:39.004Z,14.56
2022-10-22T18:39:41.018Z,14.53
2022-10-22T18:45:48.518Z,14.31
2022-10-22T18:51:55.325Z,14.42
2022-10-22T18:58:40.974Z,14.12
2022-10-22T19:04:45.746Z,13.89
2022-10-22T19:10:48.548Z,13.46
2022-10-22T19:16:51.937Z,13.31
2022-10-22T19:22:55.841Z,13.17
2022-10-22T19:29:00.554Z,13.13
2022-10-22T19:35:02.727Z,13.01
2022-10-22T19:41:18.054Z,12.97
2022-10-22T19:47:19.975Z,12.83
2022-10-22T19:53:22.967Z,12.77
2022-10-22T19:59:29.794Z,12.95
2022-10-22T20:05:33.995Z,12.76
2022-10-22T20:11:36.196Z,12.70
2022-10-22T20:17:38.092Z,12.71
2022-10-22T20:23:40.553Z,12.66
2022-10-22T20:29:42.497Z,12.56
2022-10-22T20:35:44.936Z,12.38
2022-10-22T20:41:49.374Z,12.31
2022-10-22T20:47:58.709Z,12.22
2022-10-22T20:54:06.354Z,12.15
2022-10-22T21:00:09.544Z,12.06
2022-10-22T21:06:11.708Z,12.17
2022-10-22T21:12:13.634Z,12.02
2022-10-22T21:18:15.585Z,11.92
2022-10-22T21:24:17.636Z,11.94
2022-10-22T21:30:19.604Z,11.84
2022-10-22T21:36:25.059Z,11.79
2022-10-22T21:42:26.947Z,11.67
2022-10-22T21:48:29.267Z,11.79
2022-10-22T21:54:31.206Z,11.75
2022-10-22T22:00:33.550Z,11.76
2022-10-22T22:06:35.529Z,11.83
2022-10-22T22:12:37.483Z,11.81
2022-10-22T22:18:41.048Z,11.90
2022-10-22T22:24:42.931Z,11.87
2022-10-22T22:30:44.914Z,11.88
2022-10-22T22:36:49.715Z,12.02
2022-10-22T22:42:51.613Z,12.01
2022-10-22T22:48:53.581Z,11.99
2022-10-22T22:54:55.486Z,11.95
2022-10-22T23:01:30.708Z,11.85
2022-10-22T23:07:32.668Z,12.05
2022-10-22T23:13:42.560Z,12.07
2022-10-22T23:20:05.085Z,11.82
2022-10-22T23:26:40.626Z,11.87
2022-10-22T23:32:42.544Z,12.10
2022-10-22T23:45:39.109Z,12.15
2022-10-22T23:51:45.132Z,12.47
2022-10-22T23:57:47.209Z,12.39
